Time;durP1;ratioP1;P1;durP2;ratioP2;P2;SDS_P1;SDS_P2;PMS_P1;PMS_P2;Temp;Humidity;BMP_temperature;BMP_pressure;BME280_temperature;BME280_humidity;BME280_pressure;Samples;Min_cycle;Max_cycle;Signal;HPM_P1;HPM_P2
2024/03/11 00:00:17;;;;;;;22.40;19.27;;;7.60;92.10;;;7.03;95.49;96282.88;5076750;28;20451;-79
2024/03/11 00:02:45;;;;;;;25.87;18.97;;;7.70;92.20;;;6.98;94.32;96281.97;5077044;28;20485;-80
2024/03/11 00:05:15;;;;;;;20.10;17.13;;;7.70;91.80;;;7.02;94.71;96300.03;5072986;28;20453;-79
2024/03/11 00:07:45;;;;;;;22.50;18.97;;;7.80;91.70;;;6.77;94.04;96249.28;5076625;28;20471;-76
2024/03/11 00:10:12;;;;;;;21.83;18.60;;;7.80;91.60;;;7.17;93.85;96299.59;5089350;28;20475;-81
2024/03/11 00:12:41;;;;;;;23.37;17.80;;;7.80;91.60;;;7.08;93.62;96291.06;5078865;28;20444;-79
2024/03/11 00:15:12;;;;;;;21.43;17.73;;;7.80;91.20;;;7.17;93.24;96298.75;5082212;28;20458;-76
2024/03/11 00:17:39;;;;;;;21.87;18.70;;;7.90;91.30;;;7.27;93.47;96303.53;5079336;28;20482;-76
2024/03/11 00:20:08;;;;;;;20.23;17.50;;;8.00;91.50;;;7.21;94.00;96305.31;5070488;28;20447;-74
2024/03/11 00:22:37;;;;;;;19.10;15.53;;;8.00;91.30;;;7.27;93.25;96312.41;5078158;28;20544;-81
2024/03/11 00:25:06;;;;;;;19.27;16.23;;;8.00;91.20;;;7.31;92.24;96304.69;5083779;28;20437;-77
2024/03/11 00:27:36;;;;;;;18.70;16.17;;;8.00;90.80;;;7.44;91.76;96325.09;5078247;28;20450;-78
2024/03/11 00:30:08;;;;;;;18.90;16.00;;;8.00;91.10;;;7.46;91.06;96320.31;5065096;28;20451;-81
2024/03/11 00:32:35;;;;;;;18.23;15.03;;;8.00;90.80;;;7.37;90.39;96325.25;5070341;28;20475;-81
2024/03/11 00:35:03;;;;;;;15.00;12.77;;;8.00;90.30;;;7.06;90.68;96303.09;5072680;28;20444;-78
2024/03/11 00:37:31;;;;;;;13.07;11.67;;;8.00;89.60;;;7.11;90.73;96326.56;5078984;28;20466;-80
2024/03/11 00:39:59;;;;;;;12.83;10.43;;;8.00;89.20;;;7.19;89.92;96320.81;5070779;28;20451;-80
2024/03/11 00:42:27;;;;;;;13.40;11.60;;;7.90;89.10;;;7.03;90.01;96325.84;5075726;28;20482;-81
2024/03/11 00:44:54;;;;;;;11.07;9.70;;;7.90;88.90;;;7.14;89.83;96328.78;5080438;28;20510;-83
2024/03/11 00:47:22;;;;;;;11.97;10.50;;;7.90;89.40;;;7.17;89.44;96325.59;5064676;28;20451;-86
2024/03/11 00:49:49;;;;;;;12.10;9.27;;;7.90;88.80;;;7.03;89.43;96330.41;5071565;28;20470;-80
2024/03/11 00:52:17;;;;;;;10.37;9.37;;;7.90;88.90;;;7.15;89.80;96338.47;5066866;28;20545;-79
2024/03/11 00:54:44;;;;;;;10.40;9.30;;;7.80;89.00;;;7.08;90.00;96343.94;5071917;28;20502;-85
2024/03/11 00:57:14;;;;;;;8.93;8.07;;;7.90;89.00;;;7.03;89.62;96346.53;5068610;28;20524;-81
2024/03/11 00:59:42;;;;;;;8.43;7.53;;;7.80;88.50;;;6.81;89.94;96320.25;5067278;28;20826;-81
2024/03/11 01:02:09;;;;;;;9.50;7.80;;;7.70;88.80;;;7.06;89.05;96341.50;5059594;28;20566;-76
2024/03/11 01:04:36;;;;;;;9.83;8.83;;;7.80;88.60;;;7.03;89.29;96352.69;5064256;28;20960;-80
2024/03/11 01:07:04;;;;;;;7.90;7.10;;;7.80;88.80;;;7.01;89.44;96344.06;5065444;28;20466;-81
2024/03/11 01:09:31;;;;;;;8.20;7.30;;;7.80;89.10;;;6.98;90.35;96349.91;5068732;28;20458;-80
2024/03/11 01:11:59;;;;;;;8.20;7.40;;;7.70;89.20;;;6.86;90.82;96362.50;5071210;28;20452;-80
2024/03/11 01:14:28;;;;;;;8.03;6.67;;;7.70;89.20;;;6.92;90.74;96356.22;5063493;28;20539;-84
2024/03/11 01:16:55;;;;;;;7.73;7.03;;;7.70;89.80;;;7.06;89.76;96371.06;5059223;28;20444;-81
2024/03/11 01:19:23;;;;;;;8.07;7.27;;;7.70;89.60;;;7.08;89.27;96371.63;5057006;28;20454;-82
2024/03/11 01:21:50;;;;;;;7.83;6.47;;;7.70;89.30;;;6.87;90.00;96361.44;5069275;28;20508;-78
2024/03/11 01:24:18;;;;;;;6.93;6.23;;;7.70;89.50;;;6.97;89.96;96375.13;5063352;28;20535;-82
2024/03/11 01:26:47;;;;;;;7.40;6.47;;;7.70;89.00;;;6.95;89.99;96382.59;5062477;28;20470;-80
2024/03/11 01:29:15;;;;;;;7.23;6.53;;;7.70;88.80;;;6.93;89.55;96376.66;5058036;28;20460;-81
2024/03/11 01:31:45;;;;;;;7.10;6.40;;;7.70;88.90;;;6.91;89.50;96373.38;5058345;28;20890;-82
2024/03/11 01:34:13;;;;;;;7.30;6.47;;;7.60;89.00;;;6.82;90.41;96391.66;5069037;28;20531;-83
2024/03/11 01:36:40;;;;;;;6.80;5.87;;;7.60;89.10;;;6.98;89.44;96384.81;5085431;28;20901;-80
2024/03/11 01:39:09;;;;;;;6.70;5.97;;;7.60;89.30;;;6.87;89.33;96389.13;5068392;28;20497;-79
2024/03/11 01:41:38;;;;;;;8.40;6.73;;;7.60;88.60;;;7.01;88.52;96392.41;5074870;28;20468;-81
2024/03/11 01:44:07;;;;;;;7.83;6.40;;;7.60;88.80;;;6.97;88.99;96385.03;5060900;28;20463;-82
2024/03/11 01:46:35;;;;;;;6.70;6.00;;;7.60;88.70;;;6.91;90.04;96376.88;5072128;28;20549;-83
2024/03/11 01:49:04;;;;;;;7.00;5.60;;;7.60;89.10;;;6.95;89.18;96394.16;5056900;28;20468;-83
2024/03/11 01:51:34;;;;;;;5.53;5.03;;;7.60;88.90;;;6.87;88.95;96381.06;5059576;28;20470;-81
2024/03/11 01:54:03;;;;;;;4.90;4.50;;;7.60;88.60;;;6.95;87.64;96394.16;5058633;28;21241;-82
2024/03/11 01:56:30;;;;;;;5.33;4.80;;;7.60;87.90;;;6.83;88.66;96400.56;5058800;28;20932;-80
2024/03/11 01:59:01;;;;;;;5.80;5.23;;;7.50;88.00;;;6.71;89.75;96392.50;5068051;28;20808;-82
2024/03/11 02:01:28;;;;;;;6.60;4.80;;;7.40;88.80;;;6.70;89.87;96396.22;5066129;28;20884;-82
2024/03/11 02:03:56;;;;;;;5.27;4.80;;;7.40;89.20;;;6.61;89.65;96387.69;5059350;28;20462;-82
2024/03/11 02:06:26;;;;;;;4.90;4.40;;;7.30;89.30;;;6.41;90.26;96388.78;5067190;28;20464;-80
2024/03/11 02:08:54;;;;;;;4.13;3.80;;;7.10;89.40;;;5.95;90.69;96326.69;5077099;28;20435;-80
2024/03/11 02:11:21;;;;;;;6.00;4.10;;;7.00;90.00;;;6.14;90.90;96378.44;5066607;28;20511;-81
2024/03/11 02:13:50;;;;;;;4.40;4.00;;;6.90;90.00;;;6.23;91.72;96401.22;5083105;28;20512;-81
2024/03/11 02:16:17;;;;;;;4.23;3.30;;;6.90;90.40;;;6.23;91.46;96393.16;5057895;28;20514;-81
2024/03/11 02:18:45;;;;;;;4.40;3.63;;;6.90;90.50;;;6.23;92.02;96387.78;5071708;28;20506;-82
2024/03/11 02:21:12;;;;;;;6.53;4.10;;;6.90;90.60;;;6.20;92.28;96392.78;5066403;28;20470;-85
2024/03/11 02:23:41;;;;;;;5.13;4.20;;;6.90;90.40;;;6.21;92.29;96407.84;5067068;28;20451;-86
2024/03/11 02:26:08;;;;;;;4.43;3.83;;;6.90;90.80;;;6.21;92.11;96400.63;5070264;28;20440;-84
2024/03/11 02:28:36;;;;;;;4.60;4.10;;;6.90;90.60;;;6.37;91.28;96401.03;5088315;28;20452;-83
2024/03/11 02:31:03;;;;;;;5.13;4.63;;;7.00;90.70;;;6.41;91.60;96410.25;5060616;28;20473;-82
2024/03/11 02:33:32;;;;;;;6.00;3.70;;;7.00;90.60;;;6.30;92.28;96409.16;5059616;28;20453;-81
2024/03/11 02:36:00;;;;;;;3.83;3.53;;;7.00;90.50;;;6.26;92.22;96412.53;5061992;28;20662;-87
2024/03/11 02:38:27;;;;;;;4.40;3.97;;;7.00;90.50;;;6.10;92.05;96390.66;5065214;28;20555;-85
2024/03/11 02:40:56;;;;;;;3.57;3.27;;;7.00;90.60;;;6.18;92.44;96411.81;5062855;28;20458;-83
2024/03/11 02:43:26;;;;;;;3.43;3.13;;;6.90;90.60;;;6.18;92.43;96419.84;5086839;28;20455;-80
2024/03/11 02:45:54;;;;;;;6.43;3.30;;;6.90;90.80;;;6.12;92.64;96415.38;5066842;28;20549;-79
2024/03/11 02:48:21;;;;;;;4.27;2.83;;;6.80;90.70;;;6.14;92.75;96418.69;5062085;28;20470;-83
2024/03/11 02:50:48;;;;;;;3.20;2.97;;;6.90;90.80;;;6.00;91.78;96371.59;5062833;28;20556;-81
2024/03/11 02:53:16;;;;;;;3.00;2.80;;;6.90;90.80;;;6.17;92.65;96415.53;5061914;28;20562;-85
2024/03/11 02:55:44;;;;;;;3.90;2.87;;;6.80;90.60;;;5.78;92.38;96374.75;5067483;28;20442;-85
2024/03/11 02:58:13;;;;;;;2.77;2.53;;;6.80;90.50;;;5.94;92.38;96400.94;5061993;28;20452;-85
2024/03/11 03:00:40;;;;;;;2.20;2.03;;;6.80;90.50;;;6.02;92.54;96409.75;5055222;28;20966;-85
2024/03/11 03:03:08;;;;;;;3.10;2.83;;;6.70;90.70;;;5.92;93.17;96421.78;5065558;28;20475;-82
2024/03/11 03:05:36;;;;;;;3.00;2.80;;;6.60;90.80;;;5.91;93.32;96433.56;5069205;28;20469;-82
2024/03/11 03:08:03;;;;;;;2.63;2.43;;;6.50;91.30;;;5.99;93.40;96434.28;5067267;28;20443;-85
2024/03/11 03:10:33;;;;;;;2.87;2.60;;;6.60;91.50;;;6.11;92.78;96443.25;5070213;28;20464;-77
2024/03/11 03:13:00;;;;;;;3.77;2.77;;;6.70;91.50;;;6.17;92.33;96437.00;5066797;28;20452;-83
2024/03/11 03:15:29;;;;;;;2.70;2.50;;;6.80;91.00;;;6.15;92.08;96440.94;5054921;28;20547;-81
2024/03/11 03:17:57;;;;;;;2.77;2.50;;;6.80;90.80;;;6.16;92.43;96445.25;5051733;28;20529;-82
2024/03/11 03:20:24;;;;;;;2.80;2.60;;;6.80;90.80;;;6.08;91.96;96449.06;5057623;28;20462;-81
2024/03/11 03:22:54;;;;;;;3.00;2.70;;;6.80;90.60;;;5.75;92.06;96375.19;5052064;28;20489;-81
2024/03/11 03:25:22;;;;;;;2.60;2.37;;;6.90;90.80;;;5.73;91.45;96377.28;5060719;28;20468;-82
2024/03/11 03:27:49;;;;;;;2.90;2.57;;;6.90;90.40;;;6.41;91.37;96463.91;5075962;28;20457;-81
2024/03/11 03:30:18;;;;;;;2.47;2.27;;;7.00;90.30;;;6.35;90.81;96465.63;5073583;28;20465;-81
2024/03/11 03:32:46;;;;;;;2.70;2.50;;;7.00;90.00;;;6.36;90.41;96466.47;5060044;28;20474;-79
2024/03/11 03:35:14;;;;;;;2.30;2.10;;;7.00;89.50;;;6.35;89.68;96451.41;5075865;28;20470;-77
2024/03/11 03:37:40;;;;;;;2.90;2.70;;;7.10;89.80;;;6.55;89.42;96474.47;5083246;28;20453;-77
2024/03/11 03:40:15;;;;;;;2.83;2.63;;;7.10;89.40;;;6.50;89.93;96467.09;5083208;28;20438;-77
2024/03/11 03:42:43;;;;;;;3.10;2.80;;;7.10;89.70;;;6.51;89.65;96464.19;5073328;28;20514;-85
2024/03/11 03:45:11;;;;;;;2.70;2.50;;;7.10;89.60;;;6.42;89.33;96462.84;5063503;28;20455;-85
2024/03/11 03:47:38;;;;;;;6.60;5.60;;;7.10;88.90;;;6.12;90.15;96449.44;5063370;28;20454;-84
2024/03/11 03:50:10;;;;;;;3.07;2.87;;;6.90;88.50;;;6.14;90.81;96477.69;5059677;28;20475;-80
2024/03/11 03:52:38;;;;;;;3.37;2.93;;;6.80;89.80;;;6.20;90.81;96479.44;5063868;28;20484;-81
2024/03/11 03:55:07;;;;;;;3.23;2.90;;;6.90;90.20;;;6.32;90.33;96476.81;5064842;28;20460;-80
2024/03/11 03:57:34;;;;;;;3.47;3.17;;;6.90;90.10;;;6.10;90.89;96463.06;5074255;28;20473;-77
2024/03/11 04:00:02;;;;;;;3.40;3.10;;;7.00;89.80;;;6.20;90.47;96474.09;5062156;28;20451;-83
2024/03/11 04:02:31;;;;;;;4.20;3.50;;;7.00;89.60;;;6.29;90.57;96471.91;5055081;28;20469;-79
2024/03/11 04:05:02;;;;;;;4.30;3.50;;;7.00;89.40;;;6.13;90.93;96477.88;5068799;28;20483;-78
2024/03/11 04:07:31;;;;;;;4.20;3.80;;;7.00;89.20;;;6.14;90.46;96480.34;5076220;28;20973;-82
2024/03/11 04:09:58;;;;;;;4.33;3.93;;;6.90;89.40;;;6.20;90.07;96476.75;5060661;28;20443;-84
2024/03/11 04:12:25;;;;;;;4.20;3.80;;;6.90;89.30;;;6.11;90.62;96488.81;5060729;28;20561;-84
2024/03/11 04:14:52;;;;;;;4.47;3.67;;;6.90;88.90;;;5.98;90.70;96492.47;5066893;28;20444;-79
2024/03/11 04:17:21;;;;;;;3.80;3.40;;;6.80;88.80;;;5.94;90.85;96494.75;5057634;28;20493;-83
2024/03/11 04:19:48;;;;;;;3.70;3.40;;;6.70;89.60;;;5.85;91.13;96493.44;5053986;28;20462;-81
2024/03/11 04:22:15;;;;;;;4.40;4.00;;;6.60;89.50;;;5.69;92.48;96497.50;5060297;28;20490;-77
2024/03/11 04:24:44;;;;;;;3.83;3.50;;;6.50;90.20;;;5.72;92.43;96504.28;5058515;28;20449;-83
2024/03/11 04:27:11;;;;;;;3.70;3.40;;;6.50;90.50;;;5.60;93.01;96506.84;5082330;28;20457;-77
2024/03/11 04:29:39;;;;;;;4.37;3.97;;;6.40;90.30;;;5.56;92.92;96497.63;5064709;28;20515;-75
2024/03/11 04:32:08;;;;;;;3.97;3.50;;;6.30;90.50;;;5.46;93.59;96504.31;5068279;28;20463;-77
2024/03/11 04:34:37;;;;;;;4.30;3.80;;;6.20;90.80;;;5.36;94.10;96498.63;5070910;28;21293;-79
2024/03/11 04:37:04;;;;;;;4.40;3.87;;;6.10;90.90;;;5.31;93.92;96510.00;5064364;28;20454;-82
2024/03/11 04:39:31;;;;;;;4.40;3.57;;;6.00;91.20;;;5.08;94.69;96490.00;5059660;28;20456;-77
2024/03/11 04:42:01;;;;;;;4.23;3.83;;;5.90;91.60;;;5.04;95.29;96494.13;5077333;28;20474;-78
2024/03/11 04:44:28;;;;;;;4.00;3.60;;;5.90;92.00;;;5.17;95.41;96517.31;5050383;28;20462;-81
2024/03/11 04:46:55;;;;;;;4.70;4.30;;;5.80;92.40;;;5.18;95.30;96534.19;5057726;28;20462;-78
2024/03/11 04:49:23;;;;;;;4.97;4.47;;;5.90;92.30;;;5.04;96.08;96531.59;5059001;28;20444;-81
2024/03/11 04:51:50;;;;;;;5.10;4.70;;;5.90;92.00;;;5.00;96.24;96541.13;5057364;28;20454;-83
2024/03/11 04:54:19;;;;;;;4.63;4.23;;;5.80;92.40;;;5.03;96.13;96547.91;5064033;28;20549;-83
2024/03/11 04:56:46;;;;;;;4.60;4.10;;;5.80;92.40;;;5.06;96.56;96545.59;5064779;28;21087;-79
2024/03/11 04:59:15;;;;;;;4.20;3.83;;;5.80;92.80;;;5.09;96.43;96550.53;5062842;28;20457;-82
2024/03/11 05:01:44;;;;;;;4.20;3.80;;;5.80;92.80;;;5.13;95.72;96560.81;5054481;28;20463;-81
2024/03/11 05:04:11;;;;;;;4.80;4.40;;;5.80;92.80;;;5.19;95.86;96549.22;5059828;28;20465;-81
2024/03/11 05:06:39;;;;;;;6.00;4.43;;;5.90;92.60;;;5.20;95.93;96564.25;5065977;28;20477;-81
2024/03/11 05:09:07;;;;;;;3.90;3.50;;;6.00;92.20;;;5.17;95.68;96548.63;5061399;28;20452;-81
2024/03/11 05:11:34;;;;;;;4.80;4.17;;;6.00;91.90;;;5.24;95.42;96557.44;5059926;28;20441;-78
2024/03/11 05:14:01;;;;;;;5.90;3.90;;;6.00;91.70;;;5.13;94.87;96560.81;5055857;28;20481;-82
2024/03/11 05:16:30;;;;;;;4.43;4.13;;;6.00;91.50;;;5.13;95.41;96563.50;5062206;28;21231;-82
2024/03/11 05:18:58;;;;;;;5.23;4.57;;;5.90;91.70;;;5.07;95.34;96568.66;5068597;28;20488;-80
2024/03/11 05:21:30;;;;;;;4.23;3.83;;;5.80;91.80;;;4.94;95.49;96580.28;5071269;28;20448;-81
2024/03/11 05:23:57;;;;;;;4.50;4.20;;;5.80;92.00;;;4.78;95.83;96546.81;5060390;28;20477;-84
2024/03/11 05:26:25;;;;;;;4.50;4.07;;;5.70;92.00;;;4.88;96.38;96564.25;5064447;28;20538;-83
2024/03/11 05:28:53;;;;;;;5.07;4.63;;;5.70;92.30;;;4.32;96.89;96497.84;5062058;28;20533;-80
2024/03/11 05:31:20;;;;;;;5.10;4.50;;;5.60;92.20;;;4.78;96.01;96545.97;5074868;28;20526;-80
2024/03/11 05:33:49;;;;;;;4.20;3.80;;;5.50;92.50;;;4.76;96.65;96550.72;5058349;28;20458;-81
2024/03/11 05:36:16;;;;;;;4.27;3.90;;;5.50;92.80;;;4.74;97.00;96560.84;5057823;28;20456;-79
2024/03/11 05:38:44;;;;;;;5.20;4.70;;;5.50;92.80;;;4.55;97.09;96550.03;5074129;28;20452;-80
2024/03/11 05:41:11;;;;;;;4.60;4.20;;;5.40;92.90;;;4.56;97.24;96562.38;5081547;28;20465;-83
2024/03/11 05:43:41;;;;;;;5.00;4.47;;;5.30;93.30;;;4.50;98.19;96574.72;5057189;28;20476;-85
2024/03/11 05:46:09;;;;;;;6.20;5.13;;;5.20;93.60;;;4.46;98.40;96559.31;5060263;28;20469;-79
2024/03/11 05:48:38;;;;;;;5.73;4.83;;;5.30;94.10;;;4.55;98.35;96590.16;5063392;28;20452;-80
2024/03/11 05:51:08;;;;;;;8.03;5.67;;;5.20;94.00;;;4.51;97.83;96575.53;5058329;28;21190;-82
2024/03/11 05:53:37;;;;;;;6.57;5.53;;;5.20;93.90;;;4.51;97.95;96586.22;5058570;28;20817;-81
2024/03/11 05:56:08;;;;;;;5.80;5.13;;;5.20;94.10;;;4.56;98.36;96598.97;5060023;28;20540;-82
2024/03/11 05:58:37;;;;;;;5.70;4.73;;;5.20;94.60;;;4.37;98.92;96594.31;5064275;28;20456;-85
2024/03/11 06:01:05;;;;;;;5.47;4.43;;;5.20;94.10;;;4.48;99.26;96606.22;5057560;28;20455;-68
2024/03/11 06:03:33;;;;;;;5.30;4.80;;;5.20;94.40;;;4.57;98.65;96611.31;5057631;28;20477;-69
2024/03/11 06:06:01;;;;;;;5.87;4.90;;;5.30;94.30;;;4.61;98.06;96625.91;5054186;28;21137;-68
2024/03/11 06:08:31;;;;;;;5.20;4.60;;;5.30;93.90;;;4.63;98.15;96630.03;5048639;28;20451;-69
2024/03/11 06:10:58;;;;;;;5.37;4.87;;;5.40;93.90;;;4.73;97.68;96632.25;5060548;28;20502;-69
2024/03/11 06:13:25;;;;;;;5.37;4.87;;;5.40;93.90;;;4.66;97.61;96640.28;5053303;28;20470;-68
2024/03/11 06:15:54;;;;;;;6.13;5.30;;;5.40;93.10;;;4.53;97.40;96635.81;5055808;28;21143;-69
2024/03/11 06:18:22;;;;;;;5.57;5.07;;;5.40;92.80;;;4.57;97.07;96644.25;5058381;28;20458;-69
2024/03/11 06:20:49;;;;;;;5.70;5.20;;;5.40;92.80;;;4.66;98.02;96644.84;5060656;28;20457;-69
2024/03/11 06:23:18;;;;;;;5.70;5.10;;;5.40;93.30;;;4.56;97.33;96658.66;5057627;28;20480;-69
2024/03/11 06:25:48;;;;;;;7.17;5.80;;;5.40;92.80;;;4.56;97.29;96653.31;5060926;28;20474;-69
2024/03/11 06:28:19;;;;;;;6.30;5.67;;;5.30;92.90;;;4.43;97.51;96654.16;5057758;28;20461;-69
2024/03/11 06:30:47;;;;;;;9.37;5.90;;;5.30;92.80;;;4.51;97.34;96670.00;5065766;28;20453;-68
2024/03/11 06:33:18;;;;;;;7.03;5.90;;;5.30;92.90;;;4.38;97.53;96672.69;5058345;28;21022;-68
2024/03/11 06:35:47;;;;;;;5.97;5.37;;;5.20;92.90;;;4.43;97.29;96680.91;5032965;28;20510;-69
2024/03/11 06:38:14;;;;;;;5.73;5.23;;;5.20;93.20;;;4.48;98.00;96688.31;5056289;28;20441;-69
2024/03/11 06:40:44;;;;;;;5.80;5.23;;;5.30;92.90;;;4.68;97.07;96688.25;5081628;28;20467;-69
2024/03/11 06:43:13;;;;;;;5.80;5.30;;;5.40;92.80;;;4.74;95.94;96679.38;5072534;28;20492;-72
2024/03/11 06:45:41;;;;;;;6.13;5.50;;;5.50;92.50;;;4.85;95.84;96679.75;5066008;28;20540;-68
2024/03/11 06:48:09;;;;;;;5.17;4.67;;;5.60;92.10;;;4.99;95.11;96688.56;5050302;28;20454;-69
2024/03/11 06:50:38;;;;;;;6.47;5.17;;;5.70;91.80;;;4.96;94.06;96689.81;5063938;28;20547;-73
2024/03/11 06:53:15;;;;;;;5.53;4.53;;;5.70;91.20;;;4.96;94.11;96689.81;5070010;28;20456;-69
2024/03/11 06:55:42;;;;;;;5.07;4.57;;;5.80;90.90;;;5.04;93.57;96705.63;5067313;28;20452;-73
2024/03/11 06:58:09;;;;;;;5.33;4.77;;;5.90;90.50;;;4.65;93.35;96637.84;5049928;28;20454;-71
2024/03/11 07:00:39;;;;;;;4.90;4.40;;;5.90;90.40;;;5.38;91.79;96709.00;5058321;28;20500;-74
2024/03/11 07:03:07;;;;;;;5.10;4.60;;;6.10;90.10;;;5.42;90.30;96706.69;5049181;28;20476;-74
2024/03/11 07:05:35;;;;;;;4.77;4.27;;;6.20;88.70;;;5.58;89.21;96686.63;5058432;28;20470;-71
2024/03/11 07:08:06;;;;;;;4.27;3.87;;;6.40;88.30;;;5.56;89.38;96707.44;5054369;28;20455;-73
2024/03/11 07:10:34;;;;;;;5.70;5.10;;;6.40;87.60;;;5.46;89.30;96709.75;5062391;28;20444;-71
2024/03/11 07:13:01;;;;;;;4.63;4.23;;;6.30;87.30;;;5.64;88.96;96717.88;5058135;28;21170;-71
2024/03/11 07:15:29;;;;;;;5.10;4.60;;;6.40;87.50;;;5.62;88.29;96716.47;5060720;28;20490;-73
2024/03/11 07:17:58;;;;;;;5.20;4.70;;;6.40;87.30;;;5.64;87.80;96712.53;5066573;28;20458;-69
2024/03/11 07:20:26;;;;;;;8.20;4.33;;;6.40;86.80;;;5.56;88.04;96718.16;5062715;28;20541;-68
2024/03/11 07:22:53;;;;;;;5.07;4.47;;;6.40;86.50;;;5.62;87.75;96719.16;5059504;28;20558;-68
2024/03/11 07:25:23;;;;;;;5.40;4.33;;;6.40;86.50;;;5.73;86.82;96737.22;5071757;28;20549;-69
2024/03/11 07:27:50;;;;;;;5.33;4.80;;;6.50;86.40;;;5.81;86.74;96734.28;5046948;28;20544;-67
2024/03/11 07:30:22;;;;;;;5.03;4.53;;;6.60;86.30;;;5.92;86.07;96746.16;5061259;28;20455;-70
2024/03/11 07:33:06;;;;;;;4.90;4.40;;;6.60;86.00;;;6.13;84.95;96738.00;5059913;28;20461;-69
2024/03/11 07:35:35;;;;;;;8.83;4.60;;;6.80;85.60;;;6.18;84.79;96739.00;5064407;28;20450;-68
2024/03/11 07:38:05;;;;;;;5.63;4.40;;;6.90;85.60;;;6.39;84.07;96742.34;5063249;28;20457;-69
2024/03/11 07:40:32;;;;;;;6.87;4.00;;;7.00;85.20;;;6.48;83.46;96746.38;5067225;28;20461;-66
2024/03/11 07:43:00;;;;;;;5.10;3.80;;;7.10;84.70;;;6.30;82.87;96711.47;5058509;28;20507;-67
2024/03/11 07:45:28;;;;;;;4.90;3.87;;;7.20;84.40;;;6.49;82.74;96748.03;5051527;28;20457;-68
2024/03/11 07:47:56;;;;;;;7.70;4.57;;;7.20;84.00;;;6.56;83.01;96755.19;5061316;28;20449;-69
2024/03/11 07:50:27;;;;;;;4.37;3.60;;;7.20;84.10;;;6.69;82.16;96740.84;5062206;28;20839;-69
2024/03/11 07:52:57;;;;;;;9.33;4.63;;;7.40;84.00;;;6.85;81.14;96752.84;5061876;28;20558;-67
2024/03/11 07:55:28;;;;;;;4.40;4.00;;;7.50;83.40;;;6.90;80.63;96761.03;5057146;28;20463;-68
2024/03/11 07:57:57;;;;;;;6.20;4.10;;;7.60;83.00;;;6.92;80.31;96756.28;5048517;28;20871;-68
2024/03/11 08:00:29;;;;;;;3.67;3.27;;;7.70;82.60;;;6.88;80.00;96750.53;5056078;28;20465;-68
2024/03/11 08:02:57;;;;;;;4.20;3.50;;;7.60;82.40;;;6.95;80.81;96753.16;5051133;28;20987;-68
2024/03/11 08:05:27;;;;;;;4.03;3.47;;;7.70;82.90;;;6.95;80.06;96751.28;5064848;28;20473;-68
2024/03/11 08:07:55;;;;;;;7.30;3.90;;;7.70;82.40;;;7.07;80.38;96753.22;5073032;28;20810;-67
2024/03/11 08:10:25;;;;;;;4.13;3.73;;;7.70;82.60;;;7.19;79.21;96747.91;5064069;28;20519;-69
2024/03/11 08:12:53;;;;;;;4.03;3.63;;;7.80;82.20;;;7.10;79.11;96742.03;5063611;28;20465;-69
2024/03/11 08:15:20;;;;;;;3.40;2.90;;;7.90;81.90;;;7.19;78.59;96759.50;5058577;28;20466;-71
2024/03/11 08:17:51;;;;;;;4.47;3.73;;;7.90;81.70;;;7.30;78.70;96747.16;5056841;28;20822;-69
2024/03/11 08:20:21;;;;;;;4.07;3.67;;;8.00;81.80;;;7.51;77.57;96759.31;5062273;28;21176;-67
2024/03/11 08:22:55;;;;;;;4.07;3.67;;;8.20;81.60;;;7.60;76.91;96759.00;5060477;28;20932;-69
2024/03/11 08:25:27;;;;;;;3.50;3.20;;;8.30;80.90;;;7.57;76.09;96760.28;5047578;28;20486;-71
2024/03/11 08:27:56;;;;;;;4.27;3.17;;;8.30;80.50;;;7.72;75.70;96761.75;5051227;28;20560;-69
2024/03/11 08:30:26;;;;;;;8.63;3.73;;;8.40;80.50;;;7.78;75.36;96763.50;5056485;28;20487;-68
2024/03/11 08:32:56;;;;;;;4.63;2.90;;;8.50;80.30;;;7.87;75.46;96769.38;5052711;28;20444;-70
2024/03/11 08:35:24;;;;;;;3.60;3.07;;;8.50;80.10;;;7.92;75.06;96767.66;5054528;28;20532;-69
2024/03/11 08:37:53;;;;;;;7.90;3.10;;;8.60;80.00;;;8.07;73.76;96774.47;5054489;28;20447;-69
2024/03/11 08:40:23;;;;;;;2.93;2.67;;;8.70;79.50;;;8.12;73.82;96771.94;5051160;28;20921;-69
2024/03/11 08:42:51;;;;;;;5.90;2.90;;;8.80;79.40;;;8.29;73.54;96772.06;5049830;28;20634;-69
2024/03/11 08:45:22;;;;;;;2.50;2.30;;;8.90;79.50;;;8.32;71.91;96752.75;5061575;28;20458;-69
2024/03/11 08:47:51;;;;;;;2.30;1.83;;;9.10;78.70;;;8.57;71.61;96783.25;5045538;28;20454;-69
2024/03/11 08:50:21;;;;;;;2.00;1.80;;;9.20;78.30;;;8.73;70.30;96787.13;5054860;28;20453;-67
2024/03/11 08:52:49;;;;;;;2.30;1.80;;;9.30;77.90;;;8.64;70.90;96792.88;5059053;28;20497;-74
2024/03/11 08:55:18;;;;;;;2.20;2.00;;;9.30;77.60;;;8.60;70.84;96785.50;5056994;28;20531;-74
2024/03/11 08:57:46;;;;;;;2.77;1.53;;;9.30;77.50;;;8.55;70.73;96807.72;5053983;28;21072;-72
2024/03/11 09:00:16;;;;;;;1.93;1.67;;;9.30;77.00;;;8.60;70.32;96799.75;5060634;28;20440;-71
2024/03/11 09:02:44;;;;;;;1.57;1.47;;;9.30;77.30;;;8.72;69.72;96807.88;5054209;28;20463;-72
2024/03/11 09:05:14;;;;;;;1.33;1.23;;;9.40;77.00;;;8.87;68.97;96801.19;5056665;28;20482;-74
2024/03/11 09:07:41;;;;;;;1.50;1.40;;;9.50;76.50;;;9.07;68.58;96808.91;5055212;28;20467;-72
2024/03/11 09:10:10;;;;;;;2.10;1.30;;;9.60;76.50;;;9.17;67.42;96813.69;5056272;28;20452;-74
2024/03/11 09:12:40;;;;;;;2.33;1.53;;;9.70;76.10;;;9.15;67.21;96821.19;5056470;28;20464;-75
2024/03/11 09:15:15;;;;;;;1.30;1.20;;;9.80;75.60;;;9.17;66.97;96821.78;5076664;28;21114;-75
2024/03/11 09:17:43;;;;;;;5.80;1.60;;;9.90;75.30;;;9.31;66.68;96819.66;5061760;28;20479;-75
2024/03/11 09:20:15;;;;;;;3.83;1.80;;;10.00;74.10;;;9.34;66.46;96820.03;5057570;28;20463;-75
2024/03/11 09:22:46;;;;;;;2.40;1.37;;;10.00;73.70;;;9.50;65.74;96829.25;5047988;28;20462;-75
2024/03/11 09:25:17;;;;;;;1.40;1.30;;;10.00;73.50;;;9.69;65.72;96826.38;5043641;28;21010;-75
2024/03/11 09:27:48;;;;;;;1.90;1.33;;;10.20;73.50;;;9.73;65.06;96808.69;5049783;28;20542;-74
2024/03/11 09:30:17;;;;;;;2.87;1.53;;;10.40;72.90;;;9.94;64.09;96824.44;5066398;28;20540;-75
2024/03/11 09:32:44;;;;;;;2.43;1.40;;;10.50;72.30;;;9.74;63.65;96809.47;5048981;28;20466;-75
2024/03/11 09:35:16;;;;;;;2.80;1.17;;;10.50;72.00;;;10.08;62.77;96823.06;5058118;28;20463;-75
2024/03/11 09:37:46;;;;;;;2.07;1.30;;;10.60;71.70;;;10.13;62.64;96833.16;5057798;28;21214;-73
2024/03/11 09:40:16;;;;;;;1.87;1.60;;;10.70;71.50;;;10.07;61.70;96832.22;5054968;28;20446;-74
2024/03/11 09:42:48;;;;;;;4.63;1.50;;;10.80;70.60;;;10.09;61.56;96838.22;5058055;28;20491;-75
2024/03/11 09:45:18;;;;;;;1.80;1.00;;;10.70;70.10;;;10.12;61.97;96829.66;5057788;28;20480;-74
2024/03/11 09:47:52;;;;;;;1.40;1.30;;;10.70;70.30;;;10.43;61.43;96834.78;5055459;28;20971;-74
2024/03/11 09:50:26;;;;;;;2.27;1.10;;;10.90;70.30;;;11.00;59.50;96831.13;5068257;28;20922;-74
2024/03/11 09:52:58;;;;;;;1.90;1.70;;;11.50;69.70;;;11.13;58.01;96837.25;5082270;28;20476;-74
2024/03/11 09:55:28;;;;;;;2.20;1.13;;;11.70;68.10;;;11.22;58.30;96852.00;5057613;28;20509;-75
2024/03/11 09:58:05;;;;;;;2.00;1.30;;;11.80;68.30;;;11.14;57.93;96833.47;5060646;28;20470;-75
2024/03/11 10:00:35;;;;;;;4.50;1.40;;;11.80;67.50;;;10.95;58.25;96816.72;5067656;28;20538;-74
2024/03/11 10:03:04;;;;;;;2.50;1.10;;;11.70;67.40;;;11.20;58.37;96833.31;5058241;28;20454;-70
2024/03/11 10:05:32;;;;;;;1.57;1.10;;;11.80;67.50;;;11.03;58.54;96824.41;5057358;28;20810;-69
2024/03/11 10:08:01;;;;;;;1.37;1.27;;;11.80;67.20;;;11.19;58.56;96823.56;5062970;28;20795;-69
2024/03/11 10:10:30;;;;;;;1.53;1.43;;;11.80;67.30;;;11.38;57.78;96823.28;5058861;28;20538;-71
2024/03/11 10:13:04;;;;;;;2.10;1.40;;;12.00;66.90;;;11.58;57.34;96814.59;5062989;28;20452;-70
2024/03/11 10:15:34;;;;;;;1.50;1.40;;;12.20;66.70;;;11.54;56.91;96818.88;5057707;28;20503;-71
2024/03/11 10:18:26;;;;;;;3.53;1.43;;;12.20;66.10;;;11.75;57.08;96816.41;5055697;28;20518;-68
2024/03/11 10:21:00;;;;;;;24.07;2.40;;;12.30;66.30;;;11.52;55.89;96807.50;5057067;28;20471;-71
2024/03/11 10:23:29;;;;;;;1.50;1.40;;;12.30;65.10;;;11.45;55.50;96798.78;5054091;28;20457;-70
2024/03/11 10:26:17;;;;;;;1.97;1.30;;;12.10;64.50;;;11.03;56.57;96817.13;5044044;28;20444;-69
2024/03/11 10:28:47;;;;;;;1.53;1.43;;;11.90;64.30;;;11.04;56.80;96816.06;5058918;28;20463;-70
2024/03/11 10:31:31;;;;;;;1.30;1.20;;;11.70;65.00;;;10.91;57.74;96794.78;5072401;28;20454;-71
2024/03/11 10:34:13;;;;;;;1.70;1.60;;;11.60;65.10;;;10.75;57.13;96791.84;5050562;28;20960;-71
2024/03/11 10:36:44;;;;;;;2.20;1.03;;;11.50;64.40;;;10.80;55.57;96807.31;5060680;28;20811;-70